Aeroporto :
LOGIN :

Iscrizione | Disclaimer

   EN    FR    IT 

 










Sommario :    VFR   VFR Marginale   IFR   IFR Intensivo   IFR Molto Intensivo
Visibilità : 
Base nubi : 
>= 8 km
>= 3000ft
5 / 8 km
1000 / 3000 ft
1500m / 5 km
500 / 1000 ft
800 / 1500m
200 / 500 ft
< 800m
< 200 ft
Simboli :   Temporali  Nebbia  Neve Forte  Precipitazioni Forti  Vento > 20 kt
SIGMETs :   Varie  Temporali  Ghiacco  Turbolenza  Onda orograficha  Ceneri Vulcaniche






- Altitudine del aeroporto : 33 ft
- Codice IATA : MHZ


EGUN - RAF Mildenhall

ULTIMO METAR :
  • 220655Z 19002KT 9999 CLR 13/11 A2985 RMK AO2A SLP105 WND DATA ESTMD RVRNO $

METARs OBSOLETI :
  • 220556Z 18002KT 9999 CLR 12/10 A2985 RMK AO2A SLPNO WND DATA ESTMD RVRNO $
  • 220455Z 16002KT 9999 CLR 12/10 A2986 RMK AO2A SLP109 WND DATA ESTMD RVRNO $

TAF TAF EGUN
Valido dal 22 a 04 ore il 23 a 10 ore UTC


220400Z 2204/2310 VRB06KT 9999 SKC QNH2985INS
BECMG 2207/2208 21010G15KT 9999 SCT040 QNH2965INS
BECMG 2219/2220 22010G15KT 9999 BKN020 QNH2963INS
BECMG 2223/2224 22010G15KT 9999 BKN015 QNH2959INS
BECMG 2303/2304 22010G15KT 8000 -SHRA BKN010 QNH2959INS TX24/2215Z TN11/2204Z



MetMap, La meteo Aeronautica in un colpo d'occhio ! - Copyright ORBIFLY Dicembre 2007 - Disclaimer

ORBIFLY MET'MAP TEAM :

Programmazione e sviluppo : Alexandra Zaïnal
Concezione : Baudouin d'Aumeries
Aiuto per la programmazione : Marc-Olivier Méhu
Supporto tecnico e logistico : Manuel Goepfert
Aiuto per la traduzione : Arnaldo La Scala

Contatto : metmap@orbifly.com




FONTI E CREDITI :

   NOAA